Terminal Aerodrome Forecast
Issued by NWS

Home | Current Version | Previous Version | Graphics & Text | Print | Product List | Glossary On
Versions: 1 2 3 4 5 6 7 8 9 10 11 12 13 14 15 16 17 18 19 20 21
000
FTUS43 KGRB 030700 AAA
TAFMTW
TAF AMD
KMTW 030731Z 0308/0406 18007G15KT 6SM -SN SCT040 OVC090
      TEMPO 0308/0312 1 1/2SM -SN SCT015 BKN035
     FM031400 15013G19KT 1/2SM SN VV007
     FM031900 21009KT 2SM -SN BR SCT005 OVC009
     FM032100 24009KT 6SM -SN SCT005 OVC009
     FM032300 27011G20KT P6SM -SN SCT009 OVC025=

USA.gov is the U.S. government's official web portal to all federal, state and local government web resources and services.